KFSW

Details ICAO KFSW
Name FORT MADISON MUNI
Region United States
Timezone America/Chicago (UTC-6.0)
Plans Departing 2
Arriving 2
Stats Elevation 724 ft / 221 m (AMSL)
Location 40.659308° -91.325716°
Runways 2
Magnetic Variation 0.883° W
Sunrise 2017-12-15 13:23:38 UTC / 2017-12-15 07:23:38 Local
Sunset 2017-12-15 22:40:18 UTC / 2017-12-15 16:40:18 Local
Advertisement - Login to hide

Runways

ID Width Length Bearing (true) Bearing (mag) Surface Threshold Offset Overrun Length
08 100 ft / 30 m 1,199 ft / 365 m 97.52° 98.40° Grass 0 ft / 0 m 0 ft / 0 m
16 75 ft / 23 m 4,007 ft / 1,221 m 166.90° 167.78° Concrete 0 ft / 0 m 0 ft / 0 m
26 100 ft / 30 m 1,199 ft / 365 m 277.52° 278.40° Grass 0 ft / 0 m 0 ft / 0 m
34 75 ft / 23 m 4,007 ft / 1,221 m 346.90° 347.78° Concrete 0 ft / 0 m 0 ft / 0 m

Map

Weather


0- 5 10 15 20 25 30 35+ Temperature / ° C

Clouds and Precipitation
Forecast for 2017-12-16 06:00 UTC. Updated 2 hours ago

Ground ~20,000 ft ~40,000 ft Winds

METAR

KFSW 160315Z AUTO 21011KT 10SM OVC100 03/M06 A2991 RMK AO2

TAF

Not found

Frequencies

Recorded 120.92 MHz AWOS 3
Unicom 122.80 MHz CTAF/UNICOM
Warning: Do not use this data for real-world aviation or navigation. No guarantee of current accuracy is given.